Wardensville, West Virginia
Current Conditions -  °F | °C
As of 7:35 AM on Sunday 21 Dec 2014 (Local Time) from KFRR Reporting Station
Overcast Overcast  
Wind Chill: 32°   Ceiling: 6000
Heat Index: 32°   Visibility: 10mi
Dew Point: 25°   Wind: 0mph
Humidity: 75%   Direction: NA
Pressure: 30.3"   Gusts: NA
Location:  39.08°N, 78.6°W
Report Text: KFRR 211235Z AUTO 00000KT 10SM OVC060 00/M04 A3030 RMK AO1
Loading
Personal Weather Stations






























Interactive Weather Map New forecast layout! Learn more

10-Day Weather Forecast

Advertisements
Track Severe Weather on mobile